Easy to use

vPilot, FSInn, and Squawkbox

VATSIM has 3 different client software available to choose by the user. The 3 different softwares are relatively easy to use and enjoyable to the user's experience. The software's operating manual is available to download in case user has not been able to fully operate the software to get a real working pilot experience.

Radar that functions similarly to real ATC's radar

EuroScope & VRC

VATSIM uses an advanced radar client simulating real ATC experience in the real world. Although it said to be advanced, both radar clients are very easy to use. Another interesting point is VATSIM has the technology to break the limit between simulation and real life experience.

With VATSIM, you can learn more about aviation.
You can also discuss with other aviation geek.

Unforgettable Experience

Current Activity

No controllers currently online!

Pilot

Callsign Name Route
DLH602Krishna Ananda Ekaputera - WIII (1433164)WIMM-VTSP
SCQ9RGareth Ball ESOW (1051380)WAOS-WALL
TMC044Daniel Dezulier (1400805)WA98-WAMM
UKV3411Dmitriy Kozyrev ULLI (1364472)YBCS-WADD
VHR3424Marc-Andre Lalande CYUL (1179262)WAAA-WAMP

*This information may not be up to date.

METAR

Airport Name - Location (ICAO) METAR
Sultan Hasanuddin - Makassar (WAAA)METAR WAAA 142000Z AUTO VRB02KT 9999 FEW006 SCT036 BKN065 25/24 Q1009=
Ngurah Rai - Denpasar (WADD)METAR WADD 142000Z 26008KT 9999 SCT016 28/24 Q1008|NOSIG=
Ahmad Yani - Semarang (WAHS)METAR WAHS 142000Z AUTO 00000KT 6000NDV SCT180 BKN200 25/24 Q1009=
Juanda - Surabaya (WARR)METAR WARR 141930Z 28004KT 4000 HZ FEW020 25/24 Q1009|NOSIG=
Soekarno Hatta - Jakarta (WIII)METAR WIII 142000Z 26008KT 5000 HZ SCT020 25/22 Q1011|NOSIG=
Halim Perdanakusuma - Jakarta (WIHH)There is no METAR for Halim Perdanakusuma - Jakarta.
Kualanamu International Airport - Deli Serdang (WIMM)METAR WIMM 142000Z 15003KT 100V160 5000 -TSRA FEW016CB BKN017 24/23 Q1010=

*METAR resource from BMKG. This information may not be up to date.

VATSIM Indonesia vACC VATSIM South East Asia VATSIM Asia